createdAt,value
2023-02-08T00:03:32.292Z,-2.69
2023-02-08T00:08:34.951Z,-2.20
2023-02-08T00:13:37.629Z,-2.44
2023-02-08T00:18:39.383Z,-2.62
2023-02-08T00:23:41.826Z,-2.18
2023-02-08T00:28:43.465Z,-1.77
2023-02-08T00:33:45.136Z,-2.90
2023-02-08T00:38:46.825Z,-2.96
2023-02-08T00:43:48.494Z,-2.80
2023-02-08T00:48:50.241Z,-2.40
2023-02-08T00:53:51.932Z,-2.97
2023-02-08T00:58:53.734Z,-2.68
2023-02-08T01:03:55.362Z,-2.65
2023-02-08T01:08:57.000Z,-2.12
2023-02-08T01:13:58.705Z,-2.84
2023-02-08T01:19:01.840Z,-1.95
2023-02-08T01:24:04.588Z,-2.36
2023-02-08T01:29:07.041Z,-2.42
2023-02-08T01:34:10.239Z,-2.19
2023-02-08T01:39:12.419Z,-2.98
2023-02-08T01:44:13.958Z,-2.85
2023-02-08T01:49:20.106Z,-2.50
2023-02-08T01:54:26.379Z,-3.14
2023-02-08T01:59:39.461Z,-3.81
2023-02-08T02:04:41.514Z,-3.74
2023-02-08T02:10:02.051Z,-3.92
2023-02-08T02:15:04.324Z,-3.61
2023-02-08T02:20:09.002Z,-3.49
2023-02-08T02:25:25.767Z,-3.68
2023-02-08T02:30:45.997Z,-3.18
2023-02-08T02:36:17.312Z,-3.12
2023-02-08T02:41:43.630Z,-3.15
2023-02-08T02:46:57.649Z,-3.13
2023-02-08T02:52:15.803Z,-2.41
2023-02-08T02:57:22.643Z,-2.49
2023-02-08T03:02:26.818Z,-3.45
2023-02-08T03:08:03.568Z,-3.37
2023-02-08T03:13:12.871Z,-3.87
2023-02-08T03:18:20.690Z,-4.43
2023-02-08T03:23:38.869Z,-4.49
2023-02-08T03:28:44.151Z,-3.26
2023-02-08T03:33:58.751Z,-4.16
2023-02-08T03:39:03.437Z,-4.25
2023-02-08T03:44:16.994Z,-3.93
2023-02-08T03:49:24.114Z,-3.28
2023-02-08T03:54:30.658Z,-4.46
2023-02-08T03:59:37.947Z,-3.25
2023-02-08T04:04:44.390Z,-3.41
2023-02-08T04:09:46.590Z,-3.23
2023-02-08T04:14:48.240Z,-3.23
2023-02-08T04:19:49.847Z,-3.54
2023-02-08T04:24:51.438Z,-4.78
2023-02-08T04:29:53.136Z,-3.20
2023-02-08T04:34:54.766Z,-4.68
2023-02-08T04:39:56.419Z,-3.00
2023-02-08T04:44:58.052Z,-2.63
2023-02-08T04:49:59.882Z,-3.19
2023-02-08T04:55:01.552Z,-3.27
2023-02-08T05:00:04.681Z,-4.59
2023-02-08T05:05:06.574Z,-3.02
2023-02-08T05:10:08.902Z,-3.38
2023-02-08T05:15:11.496Z,-3.08
2023-02-08T05:20:13.777Z,-2.91
2023-02-08T05:25:15.493Z,-2.94
2023-02-08T05:30:17.498Z,-3.18
2023-02-08T05:35:19.192Z,-3.25
2023-02-08T05:40:20.934Z,-3.40
2023-02-08T05:45:22.572Z,-3.82
2023-02-08T05:50:24.320Z,-3.72
2023-02-08T05:55:27.270Z,-3.83
2023-02-08T06:00:28.934Z,-4.41
2023-02-08T06:05:30.644Z,-4.26
2023-02-08T06:10:32.439Z,-3.28
2023-02-08T06:15:34.156Z,-3.66
2023-02-08T06:20:36.046Z,-3.74
2023-02-08T06:25:37.924Z,-3.74
2023-02-08T06:30:39.907Z,-3.48
2023-02-08T06:35:46.896Z,-3.33
2023-02-08T06:40:49.520Z,-3.75
2023-02-08T06:45:51.211Z,-4.21
2023-02-08T06:50:54.020Z,-4.17
2023-02-08T06:55:55.815Z,-4.41
2023-02-08T07:00:57.522Z,-4.13
2023-02-08T07:06:04.964Z,-3.54
2023-02-08T07:11:12.179Z,-4.65
2023-02-08T07:16:14.454Z,-4.60
2023-02-08T07:21:16.539Z,-4.10
2023-02-08T07:26:18.290Z,-4.49
2023-02-08T07:31:19.943Z,-4.02
2023-02-08T07:36:21.617Z,-4.02
2023-02-08T07:41:23.325Z,-4.08
2023-02-08T07:46:25.148Z,-3.59
2023-02-08T07:51:26.829Z,-3.16
2023-02-08T07:56:28.494Z,-3.18
2023-02-08T08:01:30.229Z,-3.15
2023-02-08T08:06:32.034Z,-3.62
2023-02-08T08:11:33.889Z,-2.75
2023-02-08T08:16:35.648Z,-3.87
2023-02-08T08:21:37.454Z,-3.76
2023-02-08T08:26:39.120Z,-2.71
2023-02-08T08:31:43.524Z,-2.77
2023-02-08T08:36:45.268Z,-2.94
2023-02-08T08:41:46.962Z,-2.53
2023-02-08T08:46:48.713Z,-1.40
2023-02-08T08:51:51.405Z,-2.00
2023-02-08T08:56:53.200Z,-1.94
2023-02-08T09:01:55.458Z,-1.81
2023-02-08T09:06:57.229Z,-2.34
2023-02-08T09:11:58.953Z,-0.85
2023-02-08T09:17:00.579Z,-1.95
2023-02-08T09:22:02.239Z,-1.99
2023-02-08T09:27:04.026Z,-2.12
2023-02-08T09:32:05.706Z,-2.16
2023-02-08T09:37:07.520Z,-0.69
2023-02-08T09:42:12.953Z,-0.84
2023-02-08T09:47:20.603Z,-0.82
2023-02-08T09:52:28.308Z,-0.95
2023-02-08T09:57:35.779Z,-0.82
2023-02-08T10:02:37.552Z,-0.75
2023-02-08T10:07:41.168Z,-0.39
2023-02-08T10:13:06.287Z,-0.12
2023-02-08T10:18:19.032Z,-0.06
2023-02-08T10:23:29.569Z,-0.47
2023-02-08T10:28:34.367Z,-0.76
2023-02-08T10:33:54.596Z,-1.27
2023-02-08T10:38:57.794Z,-0.17
2023-02-08T10:44:28.028Z,1.31
2023-02-08T10:49:32.694Z,1.43
2023-02-08T10:54:35.236Z,0.09
2023-02-08T10:59:49.903Z,0.22
2023-02-08T11:06:32.087Z,-0.49
2023-02-08T11:11:42.619Z,-0.57
2023-02-08T11:16:56.345Z,-0.24
2023-02-08T11:21:59.090Z,0.37
2023-02-08T11:27:01.694Z,0.07
2023-02-08T11:32:18.783Z,0.01
2023-02-08T11:37:26.704Z,0.14
2023-02-08T11:42:34.533Z,0.69
2023-02-08T11:47:37.721Z,0.33
2023-02-08T11:52:43.340Z,0.17
2023-02-08T11:57:57.273Z,1.06
2023-02-08T12:03:28.223Z,1.09
2023-02-08T12:08:51.541Z,1.24
2023-02-08T12:14:11.501Z,0.87
2023-02-08T12:19:57.257Z,1.39
2023-02-08T12:25:14.766Z,0.58
2023-02-08T12:30:30.060Z,0.66
2023-02-08T12:35:48.161Z,1.48
2023-02-08T12:41:04.454Z,1.94
2023-02-08T12:46:24.979Z,1.26
2023-02-08T12:51:36.220Z,1.30
2023-02-08T12:56:46.558Z,1.44
2023-02-08T13:01:57.317Z,1.76
2023-02-08T13:07:04.620Z,1.64
2023-02-08T13:12:21.933Z,1.06
2023-02-08T13:17:31.630Z,1.39
2023-02-08T13:22:40.736Z,1.41
2023-02-08T13:27:42.678Z,2.16
2023-02-08T13:32:46.598Z,2.33
2023-02-08T13:38:17.076Z,2.19
2023-02-08T13:43:40.402Z,1.32
2023-02-08T13:48:48.077Z,1.28
2023-02-08T13:53:52.473Z,2.09
2023-02-08T13:59:01.306Z,2.31
2023-02-08T14:04:09.961Z,3.46
2023-02-08T14:09:21.513Z,1.69
2023-02-08T14:14:30.520Z,3.03
2023-02-08T14:19:37.414Z,1.68
2023-02-08T14:24:41.486Z,2.36
2023-02-08T14:29:43.665Z,1.85
2023-02-08T14:34:45.362Z,2.17
2023-02-08T14:39:50.570Z,1.84
2023-02-08T14:45:00.136Z,1.99
2023-02-08T14:50:06.159Z,1.75
2023-02-08T14:55:26.605Z,1.17
2023-02-08T15:00:35.673Z,1.27
2023-02-08T15:12:05.559Z,1.62
2023-02-08T15:17:07.638Z,1.46
2023-02-08T15:22:24.769Z,1.10
2023-02-08T15:27:30.633Z,1.59
2023-02-08T15:32:33.416Z,1.78
2023-02-08T15:37:35.424Z,2.34
2023-02-08T15:42:44.557Z,2.10
2023-02-08T15:47:46.422Z,1.67
2023-02-08T15:52:50.785Z,1.30
2023-02-08T15:58:01.083Z,2.13
2023-02-08T16:03:15.449Z,1.84
2023-02-08T16:08:28.176Z,2.50
2023-02-08T16:13:36.296Z,1.34
2023-02-08T16:18:42.019Z,0.92
2023-02-08T16:23:53.112Z,1.40
2023-02-08T16:29:01.430Z,1.17
2023-02-08T16:34:14.144Z,1.54
2023-02-08T16:39:18.652Z,1.88
2023-02-08T16:44:36.330Z,0.52
2023-02-08T16:49:38.216Z,0.68
2023-02-08T16:54:39.962Z,0.58
2023-02-08T16:59:41.728Z,1.81
2023-02-08T17:04:43.391Z,0.91
2023-02-08T17:09:45.353Z,1.09
2023-02-08T17:14:47.008Z,1.68
2023-02-08T17:19:48.754Z,0.30
2023-02-08T17:24:50.484Z,0.76
2023-02-08T17:29:52.871Z,0.86
2023-02-08T17:34:55.011Z,0.85
2023-02-08T17:39:56.607Z,0.11
2023-02-08T17:44:58.926Z,0.03
2023-02-08T17:50:00.658Z,0.67
2023-02-08T17:55:02.462Z,-0.03
2023-02-08T18:00:06.434Z,0.09
2023-02-08T18:05:08.242Z,0.07
2023-02-08T18:10:12.417Z,0.47
2023-02-08T18:15:17.853Z,1.14
2023-02-08T18:20:19.900Z,1.99
2023-02-08T18:25:21.555Z,1.97
2023-02-08T18:30:23.486Z,1.33
2023-02-08T18:35:25.162Z,0.22
2023-02-08T18:40:27.006Z,0.35
2023-02-08T18:45:28.661Z,1.71
2023-02-08T18:50:30.612Z,0.44
2023-02-08T18:55:32.272Z,-0.02
2023-02-08T19:00:33.906Z,0.42
2023-02-08T19:05:38.217Z,-0.53
2023-02-08T19:10:41.607Z,-0.33
2023-02-08T19:15:44.813Z,-0.14
2023-02-08T19:20:46.642Z,0.27
2023-02-08T19:25:48.426Z,-1.36
2023-02-08T19:30:50.112Z,-0.70
2023-02-08T19:35:52.054Z,-0.98
2023-02-08T19:40:54.851Z,-0.37
2023-02-08T19:45:57.412Z,-1.00
2023-02-08T19:51:00.744Z,-0.73
2023-02-08T19:56:11.460Z,-1.14
2023-02-08T20:01:14.617Z,-0.43
2023-02-08T20:06:28.046Z,-0.87
2023-02-08T20:11:38.720Z,-1.36
2023-02-08T20:16:44.628Z,-1.13
2023-02-08T20:21:46.563Z,-1.51
2023-02-08T20:26:49.195Z,-0.43
2023-02-08T20:31:57.426Z,-0.57
2023-02-08T20:37:08.291Z,-0.20
2023-02-08T20:42:10.292Z,-1.79
2023-02-08T20:47:13.910Z,-2.19
2023-02-08T20:52:15.698Z,-1.07
2023-02-08T20:57:18.247Z,-2.18
2023-02-08T21:02:23.464Z,-2.12
2023-02-08T21:07:25.191Z,-1.65
2023-02-08T21:12:26.848Z,-1.77
2023-02-08T21:17:28.606Z,-1.49
2023-02-08T21:22:30.387Z,-1.32
2023-02-08T21:27:32.054Z,-1.23
2023-02-08T21:32:33.731Z,-1.13
2023-02-08T21:37:35.431Z,-1.60
2023-02-08T21:42:37.119Z,-1.19
2023-02-08T21:47:38.955Z,-1.04
2023-02-08T21:52:59.345Z,-1.78
2023-02-08T21:58:01.106Z,-2.47
2023-02-08T22:03:02.805Z,-1.64
2023-02-08T22:08:04.752Z,-1.96
2023-02-08T22:13:06.544Z,-0.92
2023-02-08T22:18:08.264Z,-1.83
2023-02-08T22:23:10.084Z,-1.50
2023-02-08T22:28:11.991Z,-0.94
2023-02-08T22:33:13.808Z,-1.01
2023-02-08T22:38:15.532Z,-2.59
2023-02-08T22:43:17.235Z,-2.40
2023-02-08T22:48:19.007Z,-2.59
2023-02-08T22:53:21.151Z,-2.74
2023-02-08T22:58:23.356Z,-2.41
2023-02-08T23:03:25.346Z,-2.36
2023-02-08T23:08:27.161Z,-1.98
2023-02-08T23:13:30.020Z,-2.08
2023-02-08T23:18:31.643Z,-2.14
2023-02-08T23:23:33.300Z,-2.40
2023-02-08T23:28:35.129Z,-2.43
2023-02-08T23:33:38.177Z,-3.56
2023-02-08T23:38:40.495Z,-3.97
2023-02-08T23:43:42.635Z,-3.76
2023-02-08T23:48:44.636Z,-3.39
2023-02-08T23:53:47.180Z,-3.14
2023-02-08T23:58:50.941Z,-3.57
